createdAt,value
2019-04-22T00:01:55.219Z,58.00
2019-04-22T00:04:33.826Z,58.10
2019-04-22T00:07:08.726Z,58.10
2019-04-22T00:09:46.133Z,58.20
2019-04-22T00:12:19.618Z,58.30
2019-04-22T00:14:42.288Z,58.30
2019-04-22T00:17:27.742Z,58.60
2019-04-22T00:19:52.361Z,58.60
2019-04-22T00:22:22.125Z,58.70
2019-04-22T00:24:46.216Z,58.80
2019-04-22T00:27:24.039Z,59.00
2019-04-22T00:30:00.308Z,59.20
2019-04-22T00:32:19.421Z,59.10
2019-04-22T00:34:53.666Z,59.30
2019-04-22T00:37:28.579Z,59.30
2019-04-22T00:39:57.322Z,59.30
2019-04-22T00:47:32.368Z,59.40
2019-04-22T00:50:14.559Z,59.40
2019-04-22T00:55:05.467Z,59.40
2019-04-22T00:57:32.379Z,59.70
2019-04-22T01:00:06.653Z,59.80
2019-04-22T01:02:34.636Z,60.00
2019-04-22T01:05:00.795Z,60.00
2019-04-22T01:07:30.558Z,60.20
2019-04-22T01:10:07.601Z,60.30
2019-04-22T01:12:34.631Z,60.40
2019-04-22T01:15:07.338Z,60.60
2019-04-22T01:17:33.987Z,60.90
2019-04-22T01:20:52.809Z,60.90
2019-04-22T01:22:34.648Z,60.90
2019-04-22T01:25:06.844Z,61.00
2019-04-22T01:27:32.431Z,61.20
2019-04-22T01:29:55.538Z,61.10
2019-04-22T01:32:22.872Z,61.30
2019-04-22T01:35:05.051Z,61.30
2019-04-22T01:37:34.347Z,61.30
2019-04-22T01:40:09.982Z,61.50
2019-04-22T01:42:54.416Z,61.70
2019-04-22T01:45:16.083Z,61.60
2019-04-22T01:47:43.480Z,62.00
2019-04-22T01:50:16.805Z,62.00
2019-04-22T01:52:47.259Z,62.30
2019-04-22T01:55:17.714Z,62.30
2019-04-22T05:12:56.799Z,56.20
2019-04-22T05:15:27.728Z,55.90
2019-04-22T05:17:52.778Z,53.70
2019-04-22T05:22:59.474Z,52.20
2019-04-22T05:25:28.589Z,50.80
2019-04-22T05:27:49.241Z,51.10
2019-04-22T05:35:25.126Z,50.40
2019-04-22T05:37:50.556Z,48.60
2019-04-22T05:40:22.985Z,48.30
2019-04-22T05:42:53.127Z,48.30
2019-04-22T05:45:21.725Z,47.20
2019-04-22T05:50:19.032Z,46.10
2019-04-22T05:52:51.360Z,46.30
2019-04-22T05:55:25.140Z,45.80
2019-04-22T05:57:51.144Z,46.00
2019-04-22T06:02:57.174Z,46.60
2019-04-22T06:05:24.679Z,46.30
2019-04-22T06:07:52.495Z,45.30
2019-04-22T06:10:29.330Z,45.60
2019-04-22T06:12:59.275Z,45.90
2019-04-22T06:15:30.072Z,46.60
2019-04-22T06:18:12.702Z,46.40
2019-04-22T06:20:42.049Z,46.00
2019-04-22T06:23:12.875Z,46.60
2019-04-22T06:25:54.990Z,45.10
2019-04-22T06:28:16.794Z,44.60
2019-04-22T06:33:12.954Z,45.00
2019-04-22T06:38:24.663Z,43.60
2019-04-22T06:40:40.316Z,44.10
2019-04-22T06:43:09.838Z,44.30
2019-04-22T06:48:13.584Z,43.30
2019-04-22T06:50:41.642Z,43.00
2019-04-22T06:53:14.503Z,42.90
2019-04-22T06:55:44.368Z,42.40
2019-04-22T06:58:10.423Z,41.80
2019-04-22T07:00:43.099Z,40.90
2019-04-22T07:05:57.130Z,40.20
2019-04-22T07:08:46.877Z,40.40
2019-04-22T07:13:16.264Z,40.40
2019-04-22T07:18:19.856Z,39.60
2019-04-22T07:23:21.013Z,40.30
2019-04-22T07:25:45.261Z,40.40
2019-04-22T07:28:20.100Z,41.00
2019-04-22T07:30:48.600Z,41.20
2019-04-22T07:36:04.467Z,43.00
2019-04-22T07:38:25.558Z,42.50
2019-04-22T07:45:56.500Z,44.30
2019-04-22T07:48:26.468Z,43.20
2019-04-22T07:51:00.701Z,44.70
2019-04-22T07:53:17.366Z,43.80
2019-04-22T07:55:55.044Z,43.90
2019-04-22T07:58:23.851Z,43.50
2019-04-22T08:01:00.099Z,44.00
2019-04-22T08:03:30.847Z,43.80
2019-04-22T08:05:58.747Z,44.00
2019-04-22T08:08:26.487Z,44.30
2019-04-22T08:10:57.818Z,44.30
2019-04-22T08:13:24.765Z,44.50
2019-04-22T08:15:55.413Z,43.30
2019-04-22T08:18:28.286Z,42.90
2019-04-22T08:20:55.418Z,43.70
2019-04-22T08:25:55.742Z,43.20
2019-04-22T08:28:31.747Z,42.60
2019-04-22T08:31:05.147Z,42.30
2019-04-22T08:33:29.301Z,42.60
2019-04-22T08:38:48.406Z,41.60
2019-04-22T08:41:28.904Z,42.00
2019-04-22T08:46:27.325Z,42.80
2019-04-22T08:48:52.897Z,42.00
2019-04-22T08:51:23.512Z,40.70
2019-04-22T08:53:57.260Z,40.60
2019-04-22T08:56:29.605Z,39.80
2019-04-22T08:59:00.028Z,40.50
2019-04-22T09:01:24.861Z,40.30
2019-04-22T09:03:52.661Z,39.20
2019-04-22T09:06:29.646Z,38.60
2019-04-22T09:08:54.188Z,38.30
2019-04-22T09:11:26.945Z,39.10
2019-04-22T09:13:55.093Z,39.90
2019-04-22T09:18:57.484Z,38.10
2019-04-22T09:21:26.453Z,38.40
2019-04-22T09:24:00.409Z,36.90
2019-04-22T09:26:31.040Z,36.30
2019-04-22T09:28:59.456Z,37.60
2019-04-22T09:31:24.028Z,37.20
2019-04-22T09:33:53.381Z,36.90
2019-04-22T09:36:29.487Z,35.80
2019-04-22T09:38:52.803Z,35.80
2019-04-22T09:43:56.690Z,36.50
2019-04-22T09:46:33.320Z,37.00
2019-04-22T09:51:30.724Z,35.80
2019-04-22T09:54:05.949Z,35.80
2019-04-22T09:56:35.382Z,35.90
2019-04-22T09:59:13.936Z,34.60
2019-04-22T10:01:38.609Z,34.70
2019-04-22T10:04:00.819Z,34.50
2019-04-22T10:11:39.117Z,34.70
2019-04-22T10:16:37.498Z,35.60
2019-04-22T10:19:04.266Z,34.50
2019-04-22T10:21:40.308Z,34.60
2019-04-22T10:24:03.528Z,34.30
2019-04-22T10:29:09.184Z,34.00
2019-04-22T10:31:37.040Z,34.20
2019-04-22T10:33:56.068Z,34.20
2019-04-22T10:36:10.684Z,34.50
2019-04-22T10:38:40.209Z,33.60
2019-04-22T10:41:10.246Z,33.60
2019-04-22T10:43:39.294Z,32.10
2019-04-22T10:46:08.249Z,31.50
2019-04-22T10:48:37.058Z,32.00
2019-04-22T10:51:06.566Z,31.90
2019-04-22T10:53:35.666Z,31.70
2019-04-22T10:56:05.193Z,33.70
2019-04-22T10:58:34.969Z,34.30
2019-04-22T11:01:05.211Z,33.80
2019-04-22T11:03:35.236Z,33.30
2019-04-22T11:06:05.496Z,31.20
2019-04-22T11:08:44.478Z,31.80
2019-04-22T11:11:18.957Z,31.60
2019-04-22T11:13:35.995Z,32.20
2019-04-22T11:16:05.536Z,32.50
2019-04-22T11:18:35.695Z,32.00
2019-04-22T11:21:05.375Z,32.50
2019-04-22T11:23:34.459Z,32.20
2019-04-22T11:26:03.918Z,30.10
2019-04-22T11:28:33.894Z,30.50
2019-04-22T11:31:02.735Z,30.80
2019-04-22T11:33:32.283Z,30.00
2019-04-22T11:36:02.019Z,30.50
2019-04-22T11:38:31.033Z,31.70
2019-04-22T11:41:01.483Z,30.80
2019-04-22T11:43:30.510Z,31.00
2019-04-22T11:45:59.556Z,31.20
2019-04-22T11:48:29.223Z,31.20
2019-04-22T11:50:58.038Z,32.00
2019-04-22T11:53:27.026Z,31.30
2019-04-22T11:55:55.765Z,30.60
2019-04-22T11:58:24.702Z,30.90
2019-04-22T12:00:55.185Z,30.80
2019-04-22T12:03:25.350Z,30.80
2019-04-22T12:05:55.460Z,30.90
2019-04-22T12:08:25.027Z,30.90
2019-04-22T12:10:58.163Z,30.80
2019-04-22T12:13:26.028Z,31.20
2019-04-22T12:15:55.508Z,31.60
2019-04-22T12:18:24.981Z,31.40
2019-04-22T12:20:55.220Z,31.40
2019-04-22T12:23:25.174Z,31.60
2019-04-22T12:26:01.025Z,32.10
2019-04-22T12:28:24.416Z,32.40
2019-04-22T12:30:53.494Z,32.00
2019-04-22T12:33:23.515Z,31.50
2019-04-22T12:35:52.763Z,31.00
2019-04-22T12:38:22.125Z,31.20
2019-04-22T12:40:56.574Z,31.80
2019-04-22T12:43:23.231Z,32.00
2019-04-22T12:45:52.162Z,32.50
2019-04-22T12:48:21.368Z,32.70
2019-04-22T12:50:52.710Z,32.60
2019-04-22T12:53:24.331Z,33.30
2019-04-22T12:55:53.704Z,33.10
2019-04-22T12:58:21.144Z,32.70
2019-04-22T13:00:51.431Z,32.70
2019-04-22T13:03:20.407Z,31.90
2019-04-22T13:05:49.445Z,31.90
2019-04-22T13:08:19.870Z,31.50
2019-04-22T13:10:56.565Z,31.30
2019-04-22T13:13:19.045Z,31.80
2019-04-22T13:15:48.938Z,32.30
2019-04-22T13:18:28.844Z,32.30
2019-04-22T13:20:48.635Z,32.50
2019-04-22T13:23:18.077Z,32.60
2019-04-22T13:25:47.314Z,32.50
2019-04-22T13:28:16.092Z,32.60
2019-04-22T13:30:46.432Z,31.90
2019-04-22T13:33:16.673Z,31.20
2019-04-22T13:35:45.969Z,31.20
2019-04-22T13:38:15.189Z,30.90
2019-04-22T13:40:59.265Z,30.80
2019-04-22T13:43:14.521Z,30.70
2019-04-22T13:45:43.751Z,31.10
2019-04-22T13:48:35.035Z,30.90
2019-04-22T13:56:03.532Z,30.70
2019-04-22T13:58:34.292Z,30.20
2019-04-22T14:00:46.688Z,30.50
2019-04-22T14:03:20.514Z,31.30
2019-04-22T14:05:50.962Z,30.70
2019-04-22T14:08:19.921Z,30.80
2019-04-22T14:10:50.193Z,30.80
2019-04-22T14:13:19.626Z,30.50
2019-04-22T14:15:48.743Z,30.30
2019-04-22T14:18:18.953Z,30.50
2019-04-22T14:20:49.027Z,29.70
2019-04-22T14:23:17.925Z,30.10
2019-04-22T14:25:46.679Z,29.80
2019-04-22T14:28:17.958Z,30.00
2019-04-22T14:30:46.428Z,29.80
2019-04-22T14:33:16.261Z,29.80
2019-04-22T14:35:45.771Z,30.30
2019-04-22T14:38:14.568Z,30.20
2019-04-22T14:40:45.328Z,30.10
2019-04-22T14:43:44.843Z,30.30
2019-04-22T14:48:42.015Z,30.60
2019-04-22T14:51:00.901Z,30.30
2019-04-22T14:53:35.221Z,30.00
2019-04-22T14:55:46.453Z,30.20
2019-04-22T14:58:15.270Z,30.80
2019-04-22T15:00:45.752Z,30.50
2019-04-22T15:03:15.646Z,31.10
2019-04-22T15:05:44.448Z,30.30
2019-04-22T15:08:13.329Z,31.40
2019-04-22T15:10:42.261Z,31.60
2019-04-22T15:13:11.579Z,30.80
2019-04-22T15:15:57.456Z,31.20
2019-04-22T15:18:31.642Z,31.20
2019-04-22T15:21:02.733Z,32.40
2019-04-22T15:23:31.020Z,31.60
2019-04-22T15:25:59.858Z,32.00
2019-04-22T15:28:29.241Z,30.80
2019-04-22T15:30:59.365Z,30.80
2019-04-22T15:33:29.536Z,31.10
2019-04-22T15:35:59.003Z,31.40
2019-04-22T15:38:28.281Z,31.80
2019-04-22T15:40:58.567Z,31.10
2019-04-22T15:43:30.922Z,31.80
2019-04-22T15:46:01.505Z,32.10
2019-04-22T15:48:29.219Z,31.90
2019-04-22T15:50:58.760Z,31.90
2019-04-22T15:53:27.623Z,32.40
2019-04-22T15:55:56.617Z,32.10
2019-04-22T15:58:25.838Z,31.40
2019-04-22T16:01:06.198Z,32.20
2019-04-22T16:03:25.111Z,32.30
2019-04-22T16:05:54.404Z,32.60
2019-04-22T16:08:24.528Z,32.90
2019-04-22T16:10:53.689Z,32.80
2019-04-22T16:13:26.457Z,32.70
2019-04-22T16:15:54.277Z,32.80
2019-04-22T16:18:24.347Z,32.70
2019-04-22T16:20:54.331Z,33.30
2019-04-22T16:23:31.984Z,34.50
2019-04-22T16:26:03.289Z,33.40
2019-04-22T16:28:33.334Z,33.60
2019-04-22T16:31:03.629Z,34.00
2019-04-22T16:33:36.018Z,34.20
2019-04-22T16:36:02.953Z,34.30
2019-04-22T16:38:32.932Z,34.80
2019-04-22T16:41:02.888Z,35.30
2019-04-22T16:43:32.882Z,35.50
2019-04-22T16:46:01.754Z,36.20
2019-04-22T16:48:31.473Z,36.30
2019-04-22T16:51:00.261Z,36.20
2019-04-22T16:53:29.495Z,36.60
2019-04-22T16:55:59.104Z,36.90
2019-04-22T16:58:28.586Z,37.90
2019-04-22T17:00:58.816Z,37.80
2019-04-22T17:03:45.169Z,37.80
2019-04-22T17:06:19.438Z,37.70
2019-04-22T17:08:48.726Z,38.10
2019-04-22T17:11:17.926Z,38.00
2019-04-22T17:13:48.201Z,38.10
2019-04-22T17:16:18.030Z,38.60
2019-04-22T17:18:47.082Z,38.70
2019-04-22T17:21:17.403Z,39.10
2019-04-22T17:23:47.623Z,39.00
2019-04-22T17:26:16.784Z,39.10
2019-04-22T17:28:46.050Z,39.40
2019-04-22T17:31:14.717Z,39.70
2019-04-22T17:33:44.673Z,39.70
2019-04-22T17:36:14.034Z,39.90
2019-04-22T17:38:54.358Z,40.40
2019-04-22T17:41:24.451Z,40.50
2019-04-22T17:44:25.076Z,47.60
2019-04-22T17:46:40.438Z,40.80
2019-04-22T17:49:35.639Z,41.00
2019-04-22T17:52:17.157Z,41.20
2019-04-22T17:54:43.449Z,42.10
2019-04-22T17:57:19.301Z,42.00
2019-04-22T17:59:45.196Z,43.20
2019-04-22T18:02:12.915Z,45.40
2019-04-22T18:04:29.089Z,42.50
2019-04-22T18:07:23.362Z,42.70
2019-04-22T18:10:21.820Z,43.00
2019-04-22T18:12:29.167Z,43.10
2019-04-22T18:14:47.940Z,43.30
2019-04-22T18:17:19.271Z,43.60
2019-04-22T18:19:46.209Z,43.80
2019-04-22T18:22:14.008Z,43.90
2019-04-22T18:24:48.226Z,44.30
2019-04-22T18:27:34.869Z,44.60
2019-04-22T18:29:48.581Z,44.90
2019-04-22T18:32:10.135Z,45.00
2019-04-22T18:34:39.858Z,45.40
2019-04-22T18:37:18.148Z,45.50
2019-04-22T18:39:55.643Z,45.70
2019-04-22T18:42:17.948Z,46.10
2019-04-22T18:44:51.655Z,46.30
2019-04-22T18:47:18.688Z,46.40
2019-04-22T18:49:49.319Z,46.70
2019-04-22T18:52:47.039Z,47.00
2019-04-22T18:55:07.242Z,47.10
2019-04-22T18:58:00.398Z,47.20
2019-04-22T19:00:21.907Z,47.50
2019-04-22T19:02:59.020Z,47.50
2019-04-22T19:05:40.072Z,47.90
2019-04-22T19:15:53.876Z,49.00
2019-04-22T19:18:25.644Z,49.30
2019-04-22T19:20:51.885Z,49.90
2019-04-22T19:23:23.950Z,49.80
2019-04-22T19:25:45.293Z,50.30
2019-04-22T19:28:27.139Z,50.80
2019-04-22T19:30:59.523Z,50.80
2019-04-22T19:33:23.941Z,50.50
2019-04-22T19:35:58.362Z,50.80
2019-04-22T19:38:14.366Z,51.00
2019-04-22T19:41:03.116Z,51.20
2019-04-22T19:43:22.606Z,51.40
2019-04-22T19:45:55.747Z,51.50
2019-04-22T19:48:33.231Z,51.80
2019-04-22T19:50:58.940Z,52.20
2019-04-22T19:53:29.699Z,52.40
2019-04-22T19:55:49.660Z,52.50
2019-04-22T19:58:22.550Z,52.70
2019-04-22T20:01:12.696Z,52.90
2019-04-22T20:04:01.509Z,53.40
2019-04-22T20:06:22.442Z,53.50
2019-04-22T20:08:55.993Z,53.70
2019-04-22T20:11:25.619Z,54.30
2019-04-22T20:13:55.700Z,55.90
2019-04-22T20:16:20.207Z,56.10
2019-04-22T20:19:01.443Z,56.00
2019-04-22T20:21:26.639Z,56.50
2019-04-22T20:23:45.310Z,56.60
2019-04-22T20:26:17.916Z,56.90
2019-04-22T20:28:55.869Z,57.10
2019-04-22T20:31:24.649Z,57.50
2019-04-22T20:33:58.115Z,57.60
2019-04-22T20:36:44.940Z,57.80
2019-04-22T20:38:56.557Z,58.00
2019-04-22T20:41:20.107Z,58.30
2019-04-22T20:43:56.630Z,58.30
2019-04-22T20:46:28.433Z,58.70
2019-04-22T20:49:04.852Z,58.50
2019-04-22T20:51:42.332Z,58.90
2019-04-22T20:54:02.684Z,59.10
2019-04-22T20:56:25.625Z,59.70
2019-04-22T20:59:05.050Z,60.60
2019-04-22T21:01:31.479Z,60.90
2019-04-22T21:03:48.932Z,61.00
2019-04-22T21:06:27.512Z,61.40
2019-04-22T21:09:00.891Z,61.20
2019-04-22T21:11:31.521Z,61.90
2019-04-22T21:14:01.503Z,61.00
2019-04-22T21:16:36.160Z,60.90
2019-04-22T21:18:57.783Z,60.80
2019-04-22T21:21:32.224Z,61.30
2019-04-22T21:23:57.278Z,61.80
2019-04-22T21:26:29.694Z,61.70
2019-04-22T21:29:03.707Z,61.10
2019-04-22T21:31:33.306Z,61.50
2019-04-22T21:34:04.174Z,62.80
2019-04-22T21:36:40.161Z,62.70
2019-04-22T21:39:03.417Z,63.70
2019-04-22T21:41:30.669Z,63.10
2019-04-22T21:44:05.537Z,62.70
2019-04-22T21:46:33.794Z,62.30
2019-04-22T21:49:06.390Z,62.90
2019-04-22T21:51:48.104Z,63.80
2019-04-22T21:54:11.929Z,63.70
2019-04-22T21:57:11.874Z,63.30
2019-04-22T21:59:28.817Z,63.40
2019-04-22T22:06:51.255Z,62.80
2019-04-22T22:09:31.241Z,63.40
2019-04-22T22:14:30.495Z,62.60
2019-04-22T22:16:54.666Z,63.40
2019-04-22T22:19:32.728Z,62.70
2019-04-22T22:22:13.768Z,63.00
2019-04-22T22:24:41.395Z,63.30
2019-04-22T22:27:04.543Z,63.70
2019-04-22T22:29:55.058Z,63.70
2019-04-22T22:32:07.921Z,63.50
2019-04-22T22:34:32.729Z,63.40
2019-04-22T22:36:56.146Z,63.80
2019-04-22T22:39:27.444Z,63.80
2019-04-22T22:41:45.919Z,63.90
2019-04-22T22:44:23.726Z,64.30
2019-04-22T22:47:04.230Z,64.20
2019-04-22T22:49:55.026Z,64.20
2019-04-22T22:52:31.681Z,64.30
2019-04-22T22:54:39.267Z,64.90
2019-04-22T22:57:16.820Z,64.90
2019-04-22T22:59:38.342Z,65.00
2019-04-22T23:02:08.139Z,65.30
2019-04-22T23:04:41.047Z,65.10
2019-04-22T23:07:17.506Z,65.40
2019-04-22T23:09:36.605Z,65.30
2019-04-22T23:14:48.720Z,67.00
2019-04-22T23:16:57.720Z,67.30
2019-04-22T23:19:19.993Z,67.10
2019-04-22T23:21:52.661Z,68.60
2019-04-22T23:24:58.527Z,68.90
2019-04-22T23:27:34.205Z,69.20
2019-04-22T23:30:02.037Z,71.20
2019-04-22T23:32:33.230Z,71.40
2019-04-22T23:35:29.311Z,70.00
2019-04-22T23:37:57.261Z,69.40
2019-04-22T23:40:35.501Z,70.30
2019-04-22T23:43:09.113Z,70.50
2019-04-22T23:45:43.462Z,71.50
2019-04-22T23:48:03.329Z,70.70
2019-04-22T23:50:41.184Z,70.00
2019-04-22T23:53:31.534Z,69.70
2019-04-22T23:55:50.693Z,69.70
2019-04-22T23:58:35.644Z,69.80
